createdAt,value
2022-12-31T00:00:41.413Z,123.75
2022-12-31T00:02:43.103Z,122.93
2022-12-31T00:04:44.698Z,119.78
2022-12-31T00:06:47.134Z,136.30
2022-12-31T00:08:50.503Z,113.30
2022-12-31T00:10:52.078Z,125.72
2022-12-31T00:12:53.614Z,122.90
2022-12-31T00:14:55.123Z,118.05
2022-12-31T00:16:56.666Z,113.18
2022-12-31T00:19:00.261Z,115.97
2022-12-31T00:21:05.729Z,134.63
2022-12-31T00:23:07.712Z,126.32
2022-12-31T00:25:09.901Z,130.48
2022-12-31T00:27:11.453Z,127.22
2022-12-31T00:29:12.999Z,113.05
2022-12-31T00:31:20.437Z,113.45
2022-12-31T00:33:22.031Z,103.32
2022-12-31T00:35:23.570Z,97.95
2022-12-31T00:37:25.115Z,107.25
2022-12-31T00:39:26.658Z,107.07
2022-12-31T00:41:28.774Z,106.43
2022-12-31T00:43:30.367Z,106.38
2022-12-31T00:45:31.931Z,96.75
2022-12-31T00:47:33.479Z,91.93
2022-12-31T00:49:34.992Z,99.25
2022-12-31T00:51:36.557Z,92.10
2022-12-31T00:53:38.753Z,97.50
2022-12-31T00:55:40.285Z,94.55
2022-12-31T00:57:41.827Z,97.00
2022-12-31T00:59:43.378Z,104.13
2022-12-31T01:01:45.111Z,88.35
2022-12-31T01:03:48.356Z,91.35
2022-12-31T01:05:50.529Z,86.25
2022-12-31T01:07:52.123Z,82.95
2022-12-31T01:09:53.930Z,90.35
2022-12-31T01:11:55.479Z,79.35
2022-12-31T01:14:05.178Z,80.97
2022-12-31T01:18:09.637Z,81.03
2022-12-31T01:20:11.539Z,80.57
2022-12-31T01:22:13.203Z,76.40
2022-12-31T01:24:15.431Z,76.05
2022-12-31T01:26:18.509Z,80.25
2022-12-31T01:28:20.029Z,77.22
2022-12-31T01:30:21.559Z,75.47
2022-12-31T01:32:23.157Z,71.43
2022-12-31T01:34:24.849Z,71.85
2022-12-31T01:36:28.804Z,80.38
2022-12-31T01:38:30.683Z,71.35
2022-12-31T01:40:37.317Z,80.15
2022-12-31T01:42:38.886Z,76.80
2022-12-31T01:44:40.479Z,80.45
2022-12-31T01:46:47.959Z,93.25
2022-12-31T01:48:53.243Z,86.32
2022-12-31T01:50:55.183Z,83.57
2022-12-31T01:53:00.692Z,85.60
2022-12-31T01:55:24.105Z,79.70
2022-12-31T01:57:27.175Z,80.45
2022-12-31T01:59:29.888Z,79.13
2022-12-31T02:01:33.100Z,78.45
2022-12-31T02:03:35.333Z,76.40
2022-12-31T02:06:05.506Z,82.88
2022-12-31T02:08:07.426Z,78.82
2022-12-31T02:10:09.195Z,84.30
2022-12-31T02:12:11.589Z,83.35
2022-12-31T02:14:16.744Z,85.68
2022-12-31T02:16:47.836Z,82.80
2022-12-31T02:19:30.994Z,82.90
2022-12-31T02:21:41.473Z,79.32
2022-12-31T02:24:17.545Z,79.00
2022-12-31T02:26:32.243Z,76.45
2022-12-31T02:28:42.555Z,74.18
2022-12-31T02:30:50.620Z,71.38
2022-12-31T02:33:02.652Z,65.38
2022-12-31T02:35:12.347Z,67.95
2022-12-31T02:37:16.486Z,64.22
2022-12-31T02:39:18.648Z,64.47
2022-12-31T02:41:39.482Z,65.38
2022-12-31T02:43:47.221Z,54.30
2022-12-31T02:46:02.564Z,58.38
2022-12-31T02:48:23.115Z,65.15
2022-12-31T02:50:33.167Z,54.05
2022-12-31T02:52:58.431Z,46.50
2022-12-31T02:55:24.648Z,47.35
2022-12-31T02:57:38.648Z,46.63
2022-12-31T03:00:07.488Z,41.47
2022-12-31T03:02:16.187Z,48.22
2022-12-31T03:04:38.852Z,47.83
2022-12-31T03:06:42.026Z,53.25
2022-12-31T03:09:02.147Z,49.15
2022-12-31T03:11:23.647Z,40.88
2022-12-31T03:13:25.205Z,43.80
2022-12-31T03:15:29.784Z,47.53
2022-12-31T03:17:31.316Z,42.65
2022-12-31T03:19:51.388Z,37.92
2022-12-31T03:22:11.760Z,40.70
2022-12-31T03:24:31.750Z,39.42
2022-12-31T03:26:33.284Z,43.83
2022-12-31T03:28:34.804Z,38.13
2022-12-31T03:30:38.798Z,37.00
2022-12-31T03:32:42.594Z,41.35
2022-12-31T03:34:44.121Z,36.15
2022-12-31T03:36:45.622Z,36.72
2022-12-31T03:38:51.235Z,32.95
2022-12-31T03:40:54.296Z,35.15
2022-12-31T03:42:56.407Z,33.80
2022-12-31T03:44:57.890Z,34.50
2022-12-31T03:46:59.409Z,34.50
2022-12-31T03:49:00.922Z,35.33
2022-12-31T03:51:02.469Z,37.55
2022-12-31T03:53:04.223Z,31.63
2022-12-31T03:55:07.087Z,37.65
2022-12-31T03:57:08.613Z,39.50
2022-12-31T03:59:10.150Z,41.88
2022-12-31T04:01:11.784Z,37.15
2022-12-31T04:03:13.483Z,37.40
2022-12-31T04:05:16.005Z,42.83
2022-12-31T04:07:17.675Z,39.95
2022-12-31T04:09:19.234Z,41.53
2022-12-31T04:11:21.253Z,32.22
2022-12-31T04:13:22.920Z,30.95
2022-12-31T04:15:24.476Z,35.90
2022-12-31T04:17:26.574Z,31.92
2022-12-31T04:19:28.132Z,33.13
2022-12-31T04:21:34.791Z,34.20
2022-12-31T04:23:36.663Z,25.60
2022-12-31T04:25:38.193Z,27.55
2022-12-31T04:27:40.860Z,26.52
2022-12-31T04:29:42.374Z,24.02
2022-12-31T04:31:43.938Z,23.50
2022-12-31T04:33:45.659Z,22.70
2022-12-31T04:35:47.190Z,20.17
2022-12-31T04:37:48.816Z,22.50
2022-12-31T04:39:50.343Z,31.23
2022-12-31T04:41:52.613Z,21.05
2022-12-31T04:43:56.066Z,20.63
2022-12-31T04:45:57.841Z,20.45
2022-12-31T04:47:59.416Z,22.15
2022-12-31T04:50:00.911Z,21.55
2022-12-31T04:52:02.475Z,19.58
2022-12-31T04:54:04.224Z,22.88
2022-12-31T04:56:06.881Z,22.98
2022-12-31T04:58:08.414Z,20.30
2022-12-31T05:00:10.654Z,18.95
2022-12-31T05:02:12.464Z,17.55
2022-12-31T05:04:14.148Z,17.88
2022-12-31T05:06:18.270Z,20.55
2022-12-31T05:08:20.263Z,21.00
2022-12-31T05:10:21.757Z,18.10
2022-12-31T05:12:23.298Z,19.05
2022-12-31T05:14:24.990Z,20.80
2022-12-31T05:16:26.603Z,20.00
2022-12-31T05:18:29.052Z,20.58
2022-12-31T05:20:30.670Z,24.02
2022-12-31T05:22:32.263Z,20.95
2022-12-31T05:24:33.824Z,18.90
2022-12-31T05:26:35.409Z,16.45
2022-12-31T05:28:36.929Z,19.40
2022-12-31T05:30:38.535Z,19.98
2022-12-31T05:32:40.297Z,19.83
2022-12-31T05:34:41.961Z,18.45
2022-12-31T05:36:43.506Z,17.00
2022-12-31T05:38:45.024Z,19.27
2022-12-31T05:40:46.557Z,17.80
2022-12-31T05:42:49.775Z,18.08
2022-12-31T05:44:51.423Z,17.27
2022-12-31T05:46:52.983Z,17.52
2022-12-31T05:48:54.475Z,17.73
2022-12-31T05:50:56.126Z,19.50
2022-12-31T05:52:57.684Z,19.50
2022-12-31T05:54:59.207Z,18.95
2022-12-31T05:57:00.735Z,18.65
2022-12-31T05:59:02.239Z,18.20
2022-12-31T06:01:03.870Z,18.10
2022-12-31T06:03:05.725Z,18.10
2022-12-31T06:05:07.622Z,16.48
2022-12-31T06:07:09.158Z,19.48
2022-12-31T06:09:10.790Z,18.67
2022-12-31T06:11:12.397Z,16.98
2022-12-31T06:13:13.958Z,15.35
2022-12-31T06:15:15.921Z,15.18
2022-12-31T06:17:17.644Z,17.17
2022-12-31T06:19:19.144Z,16.60
2022-12-31T06:21:21.607Z,17.80
2022-12-31T06:23:23.101Z,23.88
2022-12-31T06:25:24.625Z,16.00
2022-12-31T06:27:26.195Z,13.90
2022-12-31T06:29:27.747Z,17.90
2022-12-31T06:31:29.297Z,18.80
2022-12-31T06:33:31.632Z,19.65
2022-12-31T06:35:33.317Z,23.30
2022-12-31T06:37:35.132Z,26.30
2022-12-31T06:39:36.698Z,29.52
2022-12-31T06:41:38.210Z,27.60
2022-12-31T06:43:40.506Z,26.17
2022-12-31T06:45:42.048Z,22.40
2022-12-31T06:47:43.549Z,23.25
2022-12-31T06:49:45.033Z,22.40
2022-12-31T06:51:47.776Z,19.70
2022-12-31T06:53:50.730Z,19.10
2022-12-31T06:55:52.531Z,21.80
2022-12-31T06:57:54.629Z,21.40
2022-12-31T06:59:56.438Z,21.83
2022-12-31T07:02:21.181Z,20.23
2022-12-31T07:04:44.401Z,21.63
2022-12-31T07:06:53.673Z,22.42
2022-12-31T07:08:59.056Z,25.70
2022-12-31T07:11:15.408Z,28.00
2022-12-31T07:13:52.282Z,23.27
2022-12-31T07:16:32.538Z,22.05
2022-12-31T07:18:39.136Z,21.42
2022-12-31T07:20:40.978Z,24.27
2022-12-31T07:22:43.982Z,17.65
2022-12-31T07:24:45.832Z,20.15
2022-12-31T07:27:07.566Z,24.40
2022-12-31T07:29:17.586Z,22.55
2022-12-31T07:31:34.796Z,21.23
2022-12-31T07:33:56.699Z,23.30
2022-12-31T07:36:24.607Z,21.20
2022-12-31T07:38:32.930Z,18.77
2022-12-31T07:41:07.394Z,23.17
2022-12-31T07:43:31.257Z,18.65
2022-12-31T07:45:32.781Z,19.77
2022-12-31T07:47:34.542Z,21.65
2022-12-31T07:49:42.172Z,18.23
2022-12-31T07:51:44.059Z,21.23
2022-12-31T07:53:45.599Z,15.63
2022-12-31T07:55:55.760Z,16.42
2022-12-31T07:58:22.225Z,16.67
2022-12-31T08:00:24.070Z,19.17
2022-12-31T08:02:25.646Z,16.02
2022-12-31T08:04:54.349Z,15.88
2022-12-31T08:07:19.212Z,16.42
2022-12-31T08:09:33.117Z,18.85
2022-12-31T08:11:34.582Z,19.13
2022-12-31T08:13:36.252Z,20.77
2022-12-31T08:15:39.322Z,37.17
2022-12-31T08:17:41.496Z,26.27
2022-12-31T08:19:43.963Z,21.30
2022-12-31T08:21:48.321Z,14.35
2022-12-31T08:24:02.378Z,16.23
2022-12-31T08:26:10.085Z,14.13
2022-12-31T08:28:36.417Z,14.82
2022-12-31T08:30:56.691Z,13.30
2022-12-31T08:33:14.270Z,14.90
2022-12-31T08:35:34.587Z,13.88
2022-12-31T08:37:59.221Z,13.65
2022-12-31T08:40:19.632Z,12.30
2022-12-31T08:42:21.151Z,12.80
2022-12-31T08:45:01.227Z,15.98
2022-12-31T08:47:02.811Z,18.65
2022-12-31T08:49:04.637Z,16.25
2022-12-31T08:51:07.128Z,13.32
2022-12-31T08:53:08.927Z,12.55
2022-12-31T08:55:15.731Z,14.52
2022-12-31T08:57:39.591Z,12.40
2022-12-31T08:59:53.264Z,13.70
2022-12-31T09:02:23.223Z,15.30
2022-12-31T09:04:53.221Z,13.10
2022-12-31T09:07:03.093Z,13.00
2022-12-31T09:12:00.420Z,18.90
2022-12-31T09:14:38.975Z,19.20
2022-12-31T09:17:06.815Z,17.70
2022-12-31T09:19:10.150Z,14.80
2022-12-31T09:21:14.980Z,16.85
2022-12-31T09:23:16.875Z,12.57
2022-12-31T09:25:21.408Z,15.88
2022-12-31T09:27:40.759Z,12.85
2022-12-31T09:30:00.639Z,15.18
2022-12-31T09:34:41.820Z,11.48
2022-12-31T09:36:48.489Z,11.30
2022-12-31T09:39:00.075Z,14.43
2022-12-31T09:41:01.590Z,13.88
2022-12-31T09:43:24.802Z,12.32
2022-12-31T09:45:57.379Z,13.85
2022-12-31T09:48:12.324Z,14.63
2022-12-31T09:50:32.883Z,14.25
2022-12-31T09:52:50.084Z,21.98
2022-12-31T09:55:23.887Z,16.52
2022-12-31T09:57:31.502Z,13.98
2022-12-31T09:59:45.582Z,13.07
2022-12-31T10:02:03.079Z,13.13
2022-12-31T10:04:40.738Z,12.65
2022-12-31T10:07:17.350Z,10.15
2022-12-31T10:09:39.233Z,13.07
2022-12-31T10:11:55.754Z,10.43
2022-12-31T10:14:22.070Z,12.82
2022-12-31T10:16:49.363Z,13.10
2022-12-31T10:19:18.413Z,14.93
2022-12-31T10:21:32.239Z,10.20
2022-12-31T10:23:36.445Z,11.93
2022-12-31T10:26:00.252Z,13.02
2022-12-31T10:28:20.574Z,12.63
2022-12-31T10:30:24.183Z,12.50
2022-12-31T10:32:40.618Z,12.68
2022-12-31T10:34:51.571Z,15.32
2022-12-31T10:37:10.566Z,8.70
2022-12-31T10:39:30.634Z,12.20
2022-12-31T10:41:57.021Z,10.65
2022-12-31T10:44:21.489Z,13.07
2022-12-31T10:46:41.533Z,15.23
2022-12-31T10:49:11.792Z,21.27
2022-12-31T10:51:30.708Z,18.75
2022-12-31T10:53:53.118Z,9.10
2022-12-31T10:56:28.677Z,10.50
2022-12-31T10:58:51.560Z,12.15
2022-12-31T11:01:18.236Z,10.85
2022-12-31T11:03:54.230Z,15.20
2022-12-31T11:06:27.633Z,13.27
2022-12-31T11:08:47.203Z,14.10
2022-12-31T11:11:09.532Z,15.57
2022-12-31T11:13:29.904Z,15.52
2022-12-31T11:15:54.976Z,21.17
2022-12-31T11:18:19.991Z,18.77
2022-12-31T11:20:50.341Z,15.75
2022-12-31T11:23:00.754Z,15.23
2022-12-31T11:25:18.266Z,19.20
2022-12-31T11:27:31.275Z,11.52
2022-12-31T11:29:53.764Z,30.13
2022-12-31T11:32:22.611Z,11.90
2022-12-31T11:34:48.795Z,14.75
2022-12-31T11:37:09.023Z,16.95
2022-12-31T11:39:41.246Z,10.00
2022-12-31T11:42:00.046Z,22.17
2022-12-31T11:44:38.249Z,13.30
2022-12-31T11:46:51.956Z,16.10
2022-12-31T11:49:08.618Z,14.15
2022-12-31T11:51:16.147Z,10.25
2022-12-31T11:53:33.162Z,12.63
2022-12-31T11:56:00.245Z,12.18
2022-12-31T11:58:13.312Z,64.47
2022-12-31T12:00:19.013Z,21.17
2022-12-31T12:02:28.187Z,12.27
2022-12-31T12:04:31.059Z,11.52
2022-12-31T12:06:32.974Z,8.57
2022-12-31T12:08:35.064Z,15.15
2022-12-31T12:10:44.274Z,10.27
2022-12-31T12:12:45.853Z,11.82
2022-12-31T12:14:53.727Z,10.05
2022-12-31T12:17:00.814Z,8.95
2022-12-31T12:19:15.724Z,13.35
2022-12-31T12:21:20.806Z,12.85
2022-12-31T12:23:25.180Z,12.50
2022-12-31T12:25:37.114Z,15.68
2022-12-31T12:27:38.636Z,12.38
2022-12-31T12:29:40.158Z,16.02
2022-12-31T12:31:42.619Z,12.48
2022-12-31T12:33:46.402Z,21.45
2022-12-31T12:35:48.514Z,22.40
2022-12-31T12:37:59.672Z,13.25
2022-12-31T12:40:19.200Z,12.20
2022-12-31T12:42:20.713Z,11.82
2022-12-31T12:44:22.195Z,13.68
2022-12-31T12:46:35.216Z,14.23
2022-12-31T12:48:46.116Z,17.50
2022-12-31T12:50:49.342Z,22.88
2022-12-31T12:53:09.543Z,24.98
2022-12-31T12:55:21.837Z,22.60
2022-12-31T12:57:34.730Z,23.02
2022-12-31T12:59:45.136Z,21.85
2022-12-31T13:02:01.638Z,10.90
2022-12-31T13:07:05.565Z,53.20
2022-12-31T13:09:31.455Z,15.32
2022-12-31T13:11:45.366Z,23.73
2022-12-31T13:14:07.799Z,36.53
2022-12-31T13:16:23.875Z,34.95
2022-12-31T13:18:53.094Z,28.80
2022-12-31T13:21:07.627Z,21.63
2022-12-31T13:23:16.955Z,28.42
2022-12-31T13:25:56.285Z,17.15
2022-12-31T13:28:05.320Z,22.73
2022-12-31T13:30:22.053Z,24.33
2022-12-31T13:32:35.058Z,36.05
2022-12-31T13:34:44.114Z,22.63
2022-12-31T13:36:48.675Z,21.47
2022-12-31T13:38:56.075Z,20.95
2022-12-31T13:41:01.121Z,18.23
2022-12-31T13:43:31.648Z,23.63
2022-12-31T13:45:39.395Z,25.98
2022-12-31T13:47:57.073Z,27.15
2022-12-31T13:50:20.219Z,26.38
2022-12-31T13:52:30.887Z,25.88
2022-12-31T13:54:41.199Z,30.63
2022-12-31T13:56:45.531Z,50.03
2022-12-31T13:58:54.122Z,23.55
2022-12-31T14:01:01.722Z,16.88
2022-12-31T14:03:23.415Z,17.38
2022-12-31T14:06:03.734Z,15.73
2022-12-31T14:08:06.512Z,22.80
2022-12-31T14:10:16.011Z,22.17
2022-12-31T14:12:17.973Z,22.02
2022-12-31T14:14:42.089Z,68.47
2022-12-31T14:17:19.032Z,211.57
2022-12-31T14:19:55.189Z,29.63
2022-12-31T14:22:01.405Z,27.67
2022-12-31T14:24:40.954Z,117.35
2022-12-31T14:26:52.194Z,36.70
2022-12-31T14:29:14.755Z,23.00
2022-12-31T14:31:50.218Z,38.63
2022-12-31T14:34:18.231Z,19.45
2022-12-31T14:36:51.895Z,25.70
2022-12-31T14:39:06.833Z,19.08
2022-12-31T14:41:22.887Z,19.00
2022-12-31T14:43:55.214Z,33.75
2022-12-31T14:46:15.436Z,36.67
2022-12-31T14:48:24.108Z,16.33
2022-12-31T14:50:28.399Z,15.65
2022-12-31T14:52:32.620Z,57.20
2022-12-31T14:54:37.825Z,19.63
2022-12-31T14:56:45.047Z,34.30
2022-12-31T14:58:59.478Z,19.35
2022-12-31T15:01:09.003Z,27.35
2022-12-31T15:03:13.833Z,21.27
2022-12-31T15:05:20.241Z,27.50
2022-12-31T15:07:38.566Z,40.28
2022-12-31T15:10:07.921Z,86.20
2022-12-31T15:12:38.864Z,50.08
2022-12-31T15:15:10.042Z,54.38
2022-12-31T15:17:14.415Z,113.85
2022-12-31T15:19:18.753Z,65.13
2022-12-31T15:21:38.889Z,71.57
2022-12-31T15:23:42.385Z,74.63
2022-12-31T15:25:48.704Z,87.20
2022-12-31T15:27:50.564Z,62.05
2022-12-31T15:29:52.244Z,40.88
2022-12-31T15:31:55.128Z,41.33
2022-12-31T15:34:21.137Z,46.78
2022-12-31T15:36:25.526Z,28.75
2022-12-31T15:38:29.791Z,34.50
2022-12-31T15:40:31.381Z,77.53
2022-12-31T15:42:50.572Z,39.58
2022-12-31T15:44:59.271Z,37.40
2022-12-31T15:47:10.761Z,29.98
2022-12-31T15:49:18.354Z,70.35
2022-12-31T15:51:24.001Z,27.50
2022-12-31T15:53:43.476Z,23.38
2022-12-31T15:55:49.977Z,28.73
2022-12-31T15:57:52.065Z,70.40
2022-12-31T15:59:59.270Z,32.88
2022-12-31T16:02:01.167Z,72.60
2022-12-31T16:04:05.825Z,75.97
2022-12-31T16:06:15.415Z,63.65
2022-12-31T16:08:21.518Z,81.40
2022-12-31T16:10:30.198Z,85.20
2022-12-31T16:12:40.765Z,65.63
2022-12-31T16:14:51.673Z,32.60
2022-12-31T16:16:59.469Z,52.78
2022-12-31T16:19:01.007Z,82.07
2022-12-31T16:21:02.507Z,54.92
2022-12-31T16:23:19.975Z,54.30
2022-12-31T16:25:31.222Z,24.55
2022-12-31T16:27:35.501Z,41.40
2022-12-31T16:29:41.640Z,65.50
2022-12-31T16:31:44.840Z,39.40
2022-12-31T16:33:47.192Z,25.73
2022-12-31T16:35:56.812Z,31.35
2022-12-31T16:38:07.907Z,33.58
2022-12-31T16:40:21.983Z,20.27
2022-12-31T16:42:25.686Z,31.77
2022-12-31T16:44:29.011Z,24.10
2022-12-31T16:46:32.120Z,27.00
2022-12-31T16:48:33.802Z,24.75
2022-12-31T16:50:36.600Z,22.95
2022-12-31T16:52:40.917Z,22.83
2022-12-31T16:54:47.537Z,21.92
2022-12-31T16:56:49.321Z,27.50
2022-12-31T16:58:58.465Z,23.33
2022-12-31T17:01:10.898Z,21.90
2022-12-31T17:03:14.236Z,22.67
2022-12-31T17:05:20.808Z,23.83
2022-12-31T17:07:31.221Z,23.73
2022-12-31T17:09:37.031Z,24.17
2022-12-31T17:11:50.914Z,24.23
2022-12-31T17:14:05.949Z,24.08
2022-12-31T17:16:07.560Z,27.25
2022-12-31T17:18:19.770Z,23.20
2022-12-31T17:20:28.469Z,38.08
2022-12-31T17:22:37.222Z,30.85
2022-12-31T17:24:39.631Z,23.37
2022-12-31T17:26:41.224Z,24.23
2022-12-31T17:28:50.982Z,26.17
2022-12-31T17:30:52.775Z,28.00
2022-12-31T17:33:02.279Z,30.70
2022-12-31T17:35:27.874Z,27.45
2022-12-31T17:37:30.769Z,37.50
2022-12-31T17:42:39.585Z,29.33
2022-12-31T17:44:43.462Z,36.95
2022-12-31T17:46:45.246Z,30.88
2022-12-31T17:48:51.498Z,29.02
2022-12-31T17:50:55.101Z,30.52
2022-12-31T17:53:00.629Z,35.95
2022-12-31T17:55:02.144Z,35.95
2022-12-31T17:57:03.854Z,30.35
2022-12-31T17:59:06.978Z,21.90
2022-12-31T18:01:10.128Z,24.15
2022-12-31T18:03:11.796Z,24.85
2022-12-31T18:05:19.831Z,30.85
2022-12-31T18:07:21.344Z,29.75
2022-12-31T18:09:22.927Z,21.88
2022-12-31T18:11:24.907Z,18.20
2022-12-31T18:13:27.502Z,23.40
2022-12-31T18:15:29.053Z,25.02
2022-12-31T18:17:30.650Z,39.13
2022-12-31T18:20:03.773Z,22.65
2022-12-31T18:21:55.120Z,29.50
2022-12-31T18:25:57.497Z,20.10
2022-12-31T18:27:58.974Z,28.30
2022-12-31T18:30:04.952Z,37.78
2022-12-31T18:32:17.991Z,66.65
2022-12-31T18:34:19.558Z,32.17
2022-12-31T18:36:22.256Z,36.55
2022-12-31T18:38:23.900Z,28.23
2022-12-31T18:40:25.731Z,21.80
2022-12-31T18:42:28.499Z,25.83
2022-12-31T18:44:30.067Z,35.38
2022-12-31T18:46:31.634Z,29.67
2022-12-31T18:48:33.131Z,38.55
2022-12-31T18:50:35.354Z,33.97
2022-12-31T18:52:36.883Z,38.10
2022-12-31T18:54:38.367Z,40.70
2022-12-31T18:56:46.555Z,33.58
2022-12-31T18:58:49.310Z,35.95
2022-12-31T19:00:51.867Z,31.42
2022-12-31T19:02:53.467Z,28.17
2022-12-31T19:04:54.995Z,37.22
2022-12-31T19:06:56.994Z,26.35
2022-12-31T19:09:00.836Z,33.35
2022-12-31T19:11:02.962Z,32.65
2022-12-31T19:13:04.560Z,30.98
2022-12-31T19:15:15.958Z,52.72
2022-12-31T19:17:17.647Z,42.00
2022-12-31T19:19:19.230Z,30.75
2022-12-31T19:21:22.751Z,27.13
2022-12-31T19:23:24.274Z,33.42
2022-12-31T19:25:31.227Z,36.10
2022-12-31T19:27:32.802Z,45.78
2022-12-31T19:29:34.322Z,35.72
2022-12-31T19:31:35.873Z,32.65
2022-12-31T19:33:37.786Z,32.13
2022-12-31T19:35:39.980Z,29.83
2022-12-31T19:37:43.310Z,26.23
2022-12-31T19:39:44.847Z,25.70
2022-12-31T19:41:52.911Z,25.20
2022-12-31T19:43:58.230Z,25.05
2022-12-31T19:46:03.713Z,27.15
2022-12-31T19:48:05.529Z,26.42
2022-12-31T19:50:07.555Z,32.05
2022-12-31T19:52:09.084Z,25.75
2022-12-31T19:54:12.718Z,31.23
2022-12-31T19:56:19.808Z,25.48
2022-12-31T19:58:26.124Z,39.00
2022-12-31T20:00:27.685Z,44.92
2022-12-31T20:02:29.459Z,52.67
2022-12-31T20:04:31.103Z,45.47
2022-12-31T20:06:32.688Z,33.53
2022-12-31T20:08:35.695Z,32.58
2022-12-31T20:10:37.580Z,30.58
2022-12-31T20:12:44.078Z,26.65
2022-12-31T20:14:46.277Z,34.03
2022-12-31T20:16:47.937Z,28.70
2022-12-31T20:18:50.794Z,38.08
2022-12-31T20:20:55.743Z,24.38
2022-12-31T20:22:58.317Z,48.10
2022-12-31T20:24:59.876Z,27.17
2022-12-31T20:27:01.912Z,40.95
2022-12-31T20:29:03.462Z,49.00
2022-12-31T20:31:14.364Z,56.50
2022-12-31T20:33:19.137Z,41.97
2022-12-31T20:35:20.901Z,25.55
2022-12-31T20:37:22.426Z,29.77
2022-12-31T20:39:23.991Z,22.45
2022-12-31T20:41:26.328Z,25.25
2022-12-31T20:43:31.973Z,47.08
2022-12-31T20:45:33.523Z,28.48
2022-12-31T20:47:35.269Z,31.00
2022-12-31T20:50:09.855Z,21.85
2022-12-31T20:51:58.500Z,30.63
2022-12-31T20:54:08.596Z,27.42
2022-12-31T20:56:10.375Z,27.23
2022-12-31T20:58:11.871Z,33.20
2022-12-31T21:00:14.876Z,24.77
2022-12-31T21:02:21.262Z,34.08
2022-12-31T21:04:23.362Z,34.88
2022-12-31T21:06:25.277Z,28.38
2022-12-31T21:08:32.627Z,29.52
2022-12-31T21:10:36.339Z,31.23
2022-12-31T21:12:44.112Z,25.10
2022-12-31T21:14:45.680Z,30.20
2022-12-31T21:16:47.420Z,28.75
2022-12-31T21:18:49.006Z,31.38
2022-12-31T21:20:52.765Z,50.40
2022-12-31T21:22:54.448Z,39.10
2022-12-31T21:24:56.000Z,35.63
2022-12-31T21:26:57.536Z,24.50
2022-12-31T21:28:59.257Z,28.17
2022-12-31T21:31:03.411Z,26.75
2022-12-31T21:33:05.274Z,20.42
2022-12-31T21:35:41.158Z,22.27
2022-12-31T21:37:59.198Z,20.42
2022-12-31T21:39:50.073Z,19.35
2022-12-31T21:41:51.593Z,17.92
2022-12-31T21:43:53.068Z,19.35
2022-12-31T21:46:06.478Z,19.30
2022-12-31T21:48:21.330Z,18.60
2022-12-31T21:50:22.905Z,17.40
2022-12-31T21:52:27.079Z,27.02
2022-12-31T21:54:46.902Z,20.40
2022-12-31T21:56:48.453Z,34.15
2022-12-31T21:59:14.458Z,18.77
2022-12-31T22:01:37.361Z,24.85
2022-12-31T22:03:39.116Z,19.30
2022-12-31T22:05:59.108Z,22.67
2022-12-31T22:10:02.451Z,16.10
2022-12-31T22:12:04.203Z,20.42
2022-12-31T22:14:05.753Z,17.90
2022-12-31T22:16:08.179Z,15.70
2022-12-31T22:18:09.895Z,18.08
2022-12-31T22:20:28.191Z,14.80
2022-12-31T22:22:30.193Z,15.18
2022-12-31T22:24:31.913Z,25.08
2022-12-31T22:26:33.461Z,15.98
2022-12-31T22:28:39.708Z,13.75
2022-12-31T22:30:41.795Z,14.13
2022-12-31T22:32:43.368Z,11.68
2022-12-31T22:34:44.910Z,16.35
2022-12-31T22:36:46.406Z,12.40
2022-12-31T22:38:49.511Z,13.63
2022-12-31T22:40:51.078Z,14.93
2022-12-31T22:42:52.681Z,14.15
2022-12-31T22:44:54.173Z,13.55
2022-12-31T22:46:56.313Z,16.73
2022-12-31T22:48:59.205Z,15.52
2022-12-31T22:51:01.300Z,27.08
2022-12-31T22:53:02.834Z,27.48
2022-12-31T22:55:05.286Z,34.92
2022-12-31T22:57:06.926Z,28.55
2022-12-31T22:59:09.353Z,40.20
2022-12-31T23:01:23.132Z,39.75
2022-12-31T23:03:24.872Z,24.70
2022-12-31T23:05:26.421Z,189.85
2022-12-31T23:07:27.958Z,41.35
2022-12-31T23:09:47.894Z,19.33
2022-12-31T23:14:09.681Z,33.33
2022-12-31T23:16:30.108Z,24.48
2022-12-31T23:18:50.014Z,16.10
2022-12-31T23:23:16.185Z,16.77
2022-12-31T23:25:17.903Z,13.93
2022-12-31T23:27:19.457Z,14.95
2022-12-31T23:29:20.969Z,14.93
2022-12-31T23:31:22.614Z,23.90
2022-12-31T23:33:26.105Z,12.65
2022-12-31T23:35:28.807Z,13.65
2022-12-31T23:37:30.336Z,14.50
2022-12-31T23:39:31.924Z,18.25
2022-12-31T23:41:33.489Z,15.52
2022-12-31T23:43:35.036Z,16.08
2022-12-31T23:45:36.778Z,16.55
2022-12-31T23:47:38.448Z,12.27
2022-12-31T23:49:39.957Z,12.57
2022-12-31T23:51:41.560Z,10.07
2022-12-31T23:53:43.079Z,15.23
2022-12-31T23:55:44.638Z,14.05
2022-12-31T23:57:46.289Z,14.50
2022-12-31T23:59:47.794Z,16.92
